sensor_id;sensor_type;location;lat;lon;timestamp;P1;durP1;ratioP1;P2;durP2;ratioP2
73113;SDS011;61301;51.956;5.876;2023-06-10T00:00:42;7.20;;;4.38;;
73113;SDS011;61301;51.956;5.876;2023-06-10T00:03:09;5.95;;;4.30;;
73113;SDS011;61301;51.956;5.876;2023-06-10T00:05:36;4.20;;;3.80;;
73113;SDS011;61301;51.956;5.876;2023-06-10T00:08:04;5.65;;;3.67;;
73113;SDS011;61301;51.956;5.876;2023-06-10T00:10:36;5.60;;;4.13;;
73113;SDS011;61301;51.956;5.876;2023-06-10T00:13:04;7.30;;;4.50;;
73113;SDS011;61301;51.956;5.876;2023-06-10T00:15:34;7.15;;;4.43;;
73113;SDS011;61301;51.956;5.876;2023-06-10T00:18:01;7.22;;;4.30;;
73113;SDS011;61301;51.956;5.876;2023-06-10T00:20:28;5.47;;;3.85;;
73113;SDS011;61301;51.956;5.876;2023-06-10T00:22:56;4.90;;;4.15;;
73113;SDS011;61301;51.956;5.876;2023-06-10T00:25:24;4.85;;;4.07;;
73113;SDS011;61301;51.956;5.876;2023-06-10T00:27:54;5.70;;;4.72;;
73113;SDS011;61301;51.956;5.876;2023-06-10T00:30:20;7.07;;;3.80;;
73113;SDS011;61301;51.956;5.876;2023-06-10T00:32:47;6.53;;;4.15;;
73113;SDS011;61301;51.956;5.876;2023-06-10T00:35:13;5.63;;;3.78;;
73113;SDS011;61301;51.956;5.876;2023-06-10T00:37:39;4.43;;;4.03;;
73113;SDS011;61301;51.956;5.876;2023-06-10T00:40:05;6.47;;;4.15;;
73113;SDS011;61301;51.956;5.876;2023-06-10T00:42:32;6.07;;;3.97;;
73113;SDS011;61301;51.956;5.876;2023-06-10T00:44:58;6.22;;;4.05;;
73113;SDS011;61301;51.956;5.876;2023-06-10T00:47:24;6.65;;;4.28;;
73113;SDS011;61301;51.956;5.876;2023-06-10T00:49:51;8.80;;;3.67;;
73113;SDS011;61301;51.956;5.876;2023-06-10T00:52:17;4.65;;;3.72;;
73113;SDS011;61301;51.956;5.876;2023-06-10T00:54:45;4.72;;;3.72;;
73113;SDS011;61301;51.956;5.876;2023-06-10T00:57:12;6.78;;;4.00;;
73113;SDS011;61301;51.956;5.876;2023-06-10T00:59:41;6.95;;;4.03;;
73113;SDS011;61301;51.956;5.876;2023-06-10T01:02:12;5.20;;;3.80;;
73113;SDS011;61301;51.956;5.876;2023-06-10T01:04:38;4.65;;;4.05;;
73113;SDS011;61301;51.956;5.876;2023-06-10T01:09:57;5.53;;;4.28;;
73113;SDS011;61301;51.956;5.876;2023-06-10T01:15:21;7.45;;;4.40;;
73113;SDS011;61301;51.956;5.876;2023-06-10T01:17:55;7.90;;;4.30;;
73113;SDS011;61301;51.956;5.876;2023-06-10T01:20:23;8.63;;;4.40;;
73113;SDS011;61301;51.956;5.876;2023-06-10T01:22:55;7.45;;;3.65;;
73113;SDS011;61301;51.956;5.876;2023-06-10T01:25:23;4.72;;;3.83;;
73113;SDS011;61301;51.956;5.876;2023-06-10T01:28:00;5.65;;;3.50;;
73113;SDS011;61301;51.956;5.876;2023-06-10T01:30:36;6.88;;;4.22;;
73113;SDS011;61301;51.956;5.876;2023-06-10T01:33:13;6.55;;;3.92;;
73113;SDS011;61301;51.956;5.876;2023-06-10T01:35:54;5.63;;;4.43;;
73113;SDS011;61301;51.956;5.876;2023-06-10T01:38:26;7.35;;;4.18;;
73113;SDS011;61301;51.956;5.876;2023-06-10T01:40:53;5.55;;;3.97;;
73113;SDS011;61301;51.956;5.876;2023-06-10T01:43:21;4.85;;;4.10;;
73113;SDS011;61301;51.956;5.876;2023-06-10T01:45:46;7.72;;;3.95;;
73113;SDS011;61301;51.956;5.876;2023-06-10T01:48:13;6.50;;;4.25;;
73113;SDS011;61301;51.956;5.876;2023-06-10T01:50:39;5.07;;;3.80;;
73113;SDS011;61301;51.956;5.876;2023-06-10T01:53:05;8.43;;;4.40;;
73113;SDS011;61301;51.956;5.876;2023-06-10T01:55:31;5.35;;;4.47;;
73113;SDS011;61301;51.956;5.876;2023-06-10T01:57:57;5.22;;;4.03;;
73113;SDS011;61301;51.956;5.876;2023-06-10T02:00:23;4.75;;;3.58;;
73113;SDS011;61301;51.956;5.876;2023-06-10T02:02:49;6.32;;;3.95;;
73113;SDS011;61301;51.956;5.876;2023-06-10T02:05:15;7.45;;;4.00;;
73113;SDS011;61301;51.956;5.876;2023-06-10T02:07:41;7.32;;;4.00;;
73113;SDS011;61301;51.956;5.876;2023-06-10T02:10:08;6.07;;;3.72;;
73113;SDS011;61301;51.956;5.876;2023-06-10T02:12:34;5.78;;;4.03;;
73113;SDS011;61301;51.956;5.876;2023-06-10T02:15:00;6.45;;;3.92;;
73113;SDS011;61301;51.956;5.876;2023-06-10T02:17:26;5.18;;;4.07;;
73113;SDS011;61301;51.956;5.876;2023-06-10T02:19:52;5.70;;;4.00;;
73113;SDS011;61301;51.956;5.876;2023-06-10T02:22:22;7.05;;;4.28;;
73113;SDS011;61301;51.956;5.876;2023-06-10T02:24:48;5.68;;;3.88;;
73113;SDS011;61301;51.956;5.876;2023-06-10T02:27:15;5.47;;;4.28;;
73113;SDS011;61301;51.956;5.876;2023-06-10T02:29:42;6.07;;;4.75;;
73113;SDS011;61301;51.956;5.876;2023-06-10T02:32:10;8.00;;;4.88;;
73113;SDS011;61301;51.956;5.876;2023-06-10T02:34:36;7.70;;;4.72;;
73113;SDS011;61301;51.956;5.876;2023-06-10T02:37:03;6.97;;;4.22;;
73113;SDS011;61301;51.956;5.876;2023-06-10T02:39:30;6.90;;;4.30;;
73113;SDS011;61301;51.956;5.876;2023-06-10T02:41:56;7.28;;;4.45;;
73113;SDS011;61301;51.956;5.876;2023-06-10T02:44:22;6.93;;;4.13;;
73113;SDS011;61301;51.956;5.876;2023-06-10T02:46:49;5.63;;;3.85;;
73113;SDS011;61301;51.956;5.876;2023-06-10T02:49:16;5.75;;;4.38;;
73113;SDS011;61301;51.956;5.876;2023-06-10T02:51:44;7.20;;;4.70;;
73113;SDS011;61301;51.956;5.876;2023-06-10T02:54:10;6.07;;;4.38;;
73113;SDS011;61301;51.956;5.876;2023-06-10T02:56:36;4.72;;;3.83;;
73113;SDS011;61301;51.956;5.876;2023-06-10T02:59:05;8.13;;;4.30;;
73113;SDS011;61301;51.956;5.876;2023-06-10T03:01:33;25.20;;;5.13;;
73113;SDS011;61301;51.956;5.876;2023-06-10T03:04:05;5.03;;;3.83;;
73113;SDS011;61301;51.956;5.876;2023-06-10T03:06:32;7.03;;;4.28;;
73113;SDS011;61301;51.956;5.876;2023-06-10T03:09:09;5.45;;;4.25;;
73113;SDS011;61301;51.956;5.876;2023-06-10T03:11:36;8.43;;;4.90;;
73113;SDS011;61301;51.956;5.876;2023-06-10T03:14:03;8.43;;;4.60;;
73113;SDS011;61301;51.956;5.876;2023-06-10T03:16:30;6.55;;;3.75;;
73113;SDS011;61301;51.956;5.876;2023-06-10T03:18:57;7.38;;;4.65;;
73113;SDS011;61301;51.956;5.876;2023-06-10T03:21:23;8.68;;;3.78;;
73113;SDS011;61301;51.956;5.876;2023-06-10T03:23:50;7.10;;;4.05;;
73113;SDS011;61301;51.956;5.876;2023-06-10T03:26:16;7.85;;;4.63;;
73113;SDS011;61301;51.956;5.876;2023-06-10T03:28:45;5.72;;;4.22;;
73113;SDS011;61301;51.956;5.876;2023-06-10T03:31:11;8.95;;;4.88;;
73113;SDS011;61301;51.956;5.876;2023-06-10T03:33:37;7.25;;;4.35;;
73113;SDS011;61301;51.956;5.876;2023-06-10T03:36:05;7.00;;;4.38;;
73113;SDS011;61301;51.956;5.876;2023-06-10T03:38:31;8.18;;;4.68;;
73113;SDS011;61301;51.956;5.876;2023-06-10T03:40:57;7.68;;;4.13;;
73113;SDS011;61301;51.956;5.876;2023-06-10T03:43:23;6.60;;;3.88;;
73113;SDS011;61301;51.956;5.876;2023-06-10T03:45:51;7.15;;;4.05;;
73113;SDS011;61301;51.956;5.876;2023-06-10T03:48:17;10.20;;;4.93;;
73113;SDS011;61301;51.956;5.876;2023-06-10T03:50:48;7.05;;;4.68;;
73113;SDS011;61301;51.956;5.876;2023-06-10T03:53:16;7.53;;;4.60;;
73113;SDS011;61301;51.956;5.876;2023-06-10T03:55:43;7.10;;;4.95;;
73113;SDS011;61301;51.956;5.876;2023-06-10T03:58:10;7.75;;;4.72;;
73113;SDS011;61301;51.956;5.876;2023-06-10T04:00:39;7.18;;;3.97;;
73113;SDS011;61301;51.956;5.876;2023-06-10T04:03:08;7.97;;;4.13;;
73113;SDS011;61301;51.956;5.876;2023-06-10T04:05:38;5.80;;;4.47;;
73113;SDS011;61301;51.956;5.876;2023-06-10T04:08:04;5.95;;;4.93;;
73113;SDS011;61301;51.956;5.876;2023-06-10T04:10:31;5.95;;;4.57;;
73113;SDS011;61301;51.956;5.876;2023-06-10T04:12:57;9.10;;;4.47;;
73113;SDS011;61301;51.956;5.876;2023-06-10T04:15:26;6.50;;;4.90;;
73113;SDS011;61301;51.956;5.876;2023-06-10T04:17:52;8.07;;;4.63;;
73113;SDS011;61301;51.956;5.876;2023-06-10T04:20:21;7.80;;;4.68;;
73113;SDS011;61301;51.956;5.876;2023-06-10T04:22:48;5.90;;;4.65;;
73113;SDS011;61301;51.956;5.876;2023-06-10T04:25:15;7.20;;;4.50;;
73113;SDS011;61301;51.956;5.876;2023-06-10T04:27:43;7.28;;;4.55;;
73113;SDS011;61301;51.956;5.876;2023-06-10T04:30:10;6.75;;;4.50;;
73113;SDS011;61301;51.956;5.876;2023-06-10T04:32:37;6.97;;;5.30;;
73113;SDS011;61301;51.956;5.876;2023-06-10T04:35:07;7.47;;;4.60;;
73113;SDS011;61301;51.956;5.876;2023-06-10T04:37:33;8.45;;;4.78;;
73113;SDS011;61301;51.956;5.876;2023-06-10T04:39:59;6.40;;;4.70;;
73113;SDS011;61301;51.956;5.876;2023-06-10T04:42:26;5.53;;;4.65;;
73113;SDS011;61301;51.956;5.876;2023-06-10T04:44:52;5.75;;;4.63;;
73113;SDS011;61301;51.956;5.876;2023-06-10T04:47:19;8.55;;;5.40;;
73113;SDS011;61301;51.956;5.876;2023-06-10T04:49:45;8.52;;;4.50;;
73113;SDS011;61301;51.956;5.876;2023-06-10T04:52:11;6.88;;;4.32;;
73113;SDS011;61301;51.956;5.876;2023-06-10T04:54:40;7.65;;;5.18;;
73113;SDS011;61301;51.956;5.876;2023-06-10T04:57:06;9.57;;;4.60;;
73113;SDS011;61301;51.956;5.876;2023-06-10T04:59:33;7.15;;;4.50;;
73113;SDS011;61301;51.956;5.876;2023-06-10T05:02:03;7.25;;;4.47;;
73113;SDS011;61301;51.956;5.876;2023-06-10T05:04:30;7.57;;;5.10;;
73113;SDS011;61301;51.956;5.876;2023-06-10T05:06:56;7.95;;;4.57;;
73113;SDS011;61301;51.956;5.876;2023-06-10T05:09:22;4.97;;;4.43;;
73113;SDS011;61301;51.956;5.876;2023-06-10T05:11:48;9.02;;;5.40;;
73113;SDS011;61301;51.956;5.876;2023-06-10T05:14:14;8.23;;;4.50;;
73113;SDS011;61301;51.956;5.876;2023-06-10T05:16:44;7.68;;;4.45;;
73113;SDS011;61301;51.956;5.876;2023-06-10T05:19:10;7.28;;;5.20;;
73113;SDS011;61301;51.956;5.876;2023-06-10T05:21:37;7.35;;;4.80;;
73113;SDS011;61301;51.956;5.876;2023-06-10T05:24:03;9.90;;;4.68;;
73113;SDS011;61301;51.956;5.876;2023-06-10T05:26:29;8.23;;;4.95;;
73113;SDS011;61301;51.956;5.876;2023-06-10T05:28:57;6.80;;;4.57;;
73113;SDS011;61301;51.956;5.876;2023-06-10T05:31:24;9.48;;;4.80;;
73113;SDS011;61301;51.956;5.876;2023-06-10T05:33:50;5.45;;;4.35;;
73113;SDS011;61301;51.956;5.876;2023-06-10T05:36:16;5.47;;;3.90;;
73113;SDS011;61301;51.956;5.876;2023-06-10T05:38:42;8.30;;;5.32;;
73113;SDS011;61301;51.956;5.876;2023-06-10T05:41:08;5.60;;;3.97;;
73113;SDS011;61301;51.956;5.876;2023-06-10T05:43:34;7.53;;;4.28;;
73113;SDS011;61301;51.956;5.876;2023-06-10T05:46:00;6.10;;;4.72;;
73113;SDS011;61301;51.956;5.876;2023-06-10T05:48:26;8.00;;;4.93;;
73113;SDS011;61301;51.956;5.876;2023-06-10T05:50:52;8.15;;;4.80;;
73113;SDS011;61301;51.956;5.876;2023-06-10T05:53:18;6.75;;;4.82;;
73113;SDS011;61301;51.956;5.876;2023-06-10T05:55:44;5.25;;;4.20;;
73113;SDS011;61301;51.956;5.876;2023-06-10T05:58:11;5.45;;;3.60;;
73113;SDS011;61301;51.956;5.876;2023-06-10T06:00:38;6.47;;;3.17;;
73113;SDS011;61301;51.956;5.876;2023-06-10T06:03:08;7.93;;;4.30;;
73113;SDS011;61301;51.956;5.876;2023-06-10T06:05:34;7.45;;;4.55;;
73113;SDS011;61301;51.956;5.876;2023-06-10T06:08:01;7.47;;;4.45;;
73113;SDS011;61301;51.956;5.876;2023-06-10T06:10:27;6.75;;;4.85;;
73113;SDS011;61301;51.956;5.876;2023-06-10T06:12:53;6.55;;;4.50;;
73113;SDS011;61301;51.956;5.876;2023-06-10T06:15:19;6.47;;;4.57;;
73113;SDS011;61301;51.956;5.876;2023-06-10T06:17:45;6.15;;;4.47;;
73113;SDS011;61301;51.956;5.876;2023-06-10T06:20:11;7.28;;;4.80;;
73113;SDS011;61301;51.956;5.876;2023-06-10T06:22:37;7.10;;;4.53;;
73113;SDS011;61301;51.956;5.876;2023-06-10T06:25:04;6.45;;;4.00;;
73113;SDS011;61301;51.956;5.876;2023-06-10T06:27:31;9.43;;;5.10;;
73113;SDS011;61301;51.956;5.876;2023-06-10T06:29:57;8.77;;;4.65;;
73113;SDS011;61301;51.956;5.876;2023-06-10T06:32:24;8.85;;;5.55;;
73113;SDS011;61301;51.956;5.876;2023-06-10T06:34:53;6.47;;;4.38;;
73113;SDS011;61301;51.956;5.876;2023-06-10T06:37:21;5.75;;;4.53;;
73113;SDS011;61301;51.956;5.876;2023-06-10T06:39:51;8.38;;;4.28;;
73113;SDS011;61301;51.956;5.876;2023-06-10T06:42:19;6.47;;;4.32;;
73113;SDS011;61301;51.956;5.876;2023-06-10T06:45:18;9.05;;;4.95;;
73113;SDS011;61301;51.956;5.876;2023-06-10T06:47:44;8.93;;;4.47;;
73113;SDS011;61301;51.956;5.876;2023-06-10T06:50:10;6.65;;;4.70;;
73113;SDS011;61301;51.956;5.876;2023-06-10T06:52:36;6.43;;;3.97;;
73113;SDS011;61301;51.956;5.876;2023-06-10T06:55:02;7.22;;;4.65;;
73113;SDS011;61301;51.956;5.876;2023-06-10T06:57:28;8.50;;;4.82;;
73113;SDS011;61301;51.956;5.876;2023-06-10T06:59:54;6.13;;;4.80;;
73113;SDS011;61301;51.956;5.876;2023-06-10T07:02:20;8.50;;;4.65;;
73113;SDS011;61301;51.956;5.876;2023-06-10T07:04:46;5.95;;;4.20;;
73113;SDS011;61301;51.956;5.876;2023-06-10T07:07:15;6.18;;;4.45;;
73113;SDS011;61301;51.956;5.876;2023-06-10T07:09:41;6.63;;;4.72;;
73113;SDS011;61301;51.956;5.876;2023-06-10T07:12:07;7.80;;;4.18;;
73113;SDS011;61301;51.956;5.876;2023-06-10T07:14:34;7.65;;;4.13;;
73113;SDS011;61301;51.956;5.876;2023-06-10T07:17:00;7.53;;;4.15;;
73113;SDS011;61301;51.956;5.876;2023-06-10T07:19:26;5.80;;;4.45;;
73113;SDS011;61301;51.956;5.876;2023-06-10T07:21:52;5.82;;;3.95;;
73113;SDS011;61301;51.956;5.876;2023-06-10T07:24:18;8.85;;;4.50;;
73113;SDS011;61301;51.956;5.876;2023-06-10T07:26:45;7.85;;;4.13;;
73113;SDS011;61301;51.956;5.876;2023-06-10T07:29:11;7.95;;;4.10;;
73113;SDS011;61301;51.956;5.876;2023-06-10T07:31:38;7.47;;;4.47;;
73113;SDS011;61301;51.956;5.876;2023-06-10T07:34:04;6.13;;;3.80;;
73113;SDS011;61301;51.956;5.876;2023-06-10T07:36:30;7.95;;;4.60;;
73113;SDS011;61301;51.956;5.876;2023-06-10T07:38:56;6.82;;;3.75;;
73113;SDS011;61301;51.956;5.876;2023-06-10T07:41:22;6.05;;;4.15;;
73113;SDS011;61301;51.956;5.876;2023-06-10T07:43:51;11.18;;;5.65;;
73113;SDS011;61301;51.956;5.876;2023-06-10T07:46:22;5.38;;;3.72;;
73113;SDS011;61301;51.956;5.876;2023-06-10T07:48:49;9.45;;;4.47;;
73113;SDS011;61301;51.956;5.876;2023-06-10T07:51:16;6.30;;;3.75;;
73113;SDS011;61301;51.956;5.876;2023-06-10T07:53:42;5.57;;;4.35;;
73113;SDS011;61301;51.956;5.876;2023-06-10T07:56:08;5.65;;;3.45;;
73113;SDS011;61301;51.956;5.876;2023-06-10T07:58:34;7.78;;;4.60;;
73113;SDS011;61301;51.956;5.876;2023-06-10T08:01:00;7.70;;;4.30;;
73113;SDS011;61301;51.956;5.876;2023-06-10T08:03:26;9.77;;;4.47;;
73113;SDS011;61301;51.956;5.876;2023-06-10T08:05:52;6.00;;;4.50;;
73113;SDS011;61301;51.956;5.876;2023-06-10T08:08:18;7.75;;;4.05;;
73113;SDS011;61301;51.956;5.876;2023-06-10T08:10:45;5.57;;;4.13;;
73113;SDS011;61301;51.956;5.876;2023-06-10T08:13:11;8.15;;;4.40;;
73113;SDS011;61301;51.956;5.876;2023-06-10T08:15:37;6.60;;;4.25;;
73113;SDS011;61301;51.956;5.876;2023-06-10T08:18:03;11.75;;;5.13;;
73113;SDS011;61301;51.956;5.876;2023-06-10T08:20:29;7.15;;;4.25;;
73113;SDS011;61301;51.956;5.876;2023-06-10T08:22:55;7.88;;;4.53;;
73113;SDS011;61301;51.956;5.876;2023-06-10T08:25:21;5.22;;;4.45;;
73113;SDS011;61301;51.956;5.876;2023-06-10T08:27:47;6.32;;;4.15;;
73113;SDS011;61301;51.956;5.876;2023-06-10T08:30:14;6.65;;;3.80;;
73113;SDS011;61301;51.956;5.876;2023-06-10T08:32:40;5.97;;;3.80;;
73113;SDS011;61301;51.956;5.876;2023-06-10T08:35:06;6.50;;;3.70;;
73113;SDS011;61301;51.956;5.876;2023-06-10T08:37:32;4.35;;;3.55;;
73113;SDS011;61301;51.956;5.876;2023-06-10T08:39:58;6.72;;;4.15;;
73113;SDS011;61301;51.956;5.876;2023-06-10T08:44:53;5.28;;;3.22;;
73113;SDS011;61301;51.956;5.876;2023-06-10T08:47:24;6.93;;;4.47;;
73113;SDS011;61301;51.956;5.876;2023-06-10T08:49:51;5.82;;;4.00;;
73113;SDS011;61301;51.956;5.876;2023-06-10T08:52:19;4.15;;;3.40;;
73113;SDS011;61301;51.956;5.876;2023-06-10T08:54:52;6.25;;;4.18;;
73113;SDS011;61301;51.956;5.876;2023-06-10T08:57:22;5.25;;;3.85;;
73113;SDS011;61301;51.956;5.876;2023-06-10T08:59:48;4.57;;;3.08;;
73113;SDS011;61301;51.956;5.876;2023-06-10T09:02:15;5.82;;;3.40;;
73113;SDS011;61301;51.956;5.876;2023-06-10T09:04:42;6.05;;;3.75;;
73113;SDS011;61301;51.956;5.876;2023-06-10T09:07:10;5.13;;;3.65;;
73113;SDS011;61301;51.956;5.876;2023-06-10T09:09:36;3.88;;;2.78;;
73113;SDS011;61301;51.956;5.876;2023-06-10T09:12:03;5.68;;;3.65;;
73113;SDS011;61301;51.956;5.876;2023-06-10T09:14:29;5.90;;;4.05;;
73113;SDS011;61301;51.956;5.876;2023-06-10T09:16:55;5.10;;;3.83;;
73113;SDS011;61301;51.956;5.876;2023-06-10T09:19:27;4.85;;;3.58;;
73113;SDS011;61301;51.956;5.876;2023-06-10T09:21:54;5.30;;;3.58;;
73113;SDS011;61301;51.956;5.876;2023-06-10T09:24:23;7.70;;;3.65;;
73113;SDS011;61301;51.956;5.876;2023-06-10T09:26:50;6.50;;;3.85;;
73113;SDS011;61301;51.956;5.876;2023-06-10T09:29:27;6.95;;;3.67;;
73113;SDS011;61301;51.956;5.876;2023-06-10T09:31:53;6.38;;;3.72;;
73113;SDS011;61301;51.956;5.876;2023-06-10T09:34:19;5.03;;;3.05;;
73113;SDS011;61301;51.956;5.876;2023-06-10T09:36:50;5.65;;;3.63;;
73113;SDS011;61301;51.956;5.876;2023-06-10T09:39:17;7.00;;;3.60;;
73113;SDS011;61301;51.956;5.876;2023-06-10T09:41:46;6.28;;;3.45;;
73113;SDS011;61301;51.956;5.876;2023-06-10T09:44:13;5.63;;;3.28;;
73113;SDS011;61301;51.956;5.876;2023-06-10T09:46:41;4.00;;;3.22;;
73113;SDS011;61301;51.956;5.876;2023-06-10T09:49:07;5.18;;;4.03;;
73113;SDS011;61301;51.956;5.876;2023-06-10T09:51:33;5.15;;;3.63;;
73113;SDS011;61301;51.956;5.876;2023-06-10T09:54:02;4.32;;;3.17;;
73113;SDS011;61301;51.956;5.876;2023-06-10T09:56:35;5.43;;;3.30;;
73113;SDS011;61301;51.956;5.876;2023-06-10T09:59:01;6.63;;;3.65;;
73113;SDS011;61301;51.956;5.876;2023-06-10T10:01:30;4.30;;;3.40;;
73113;SDS011;61301;51.956;5.876;2023-06-10T10:03:56;6.65;;;3.78;;
73113;SDS011;61301;51.956;5.876;2023-06-10T10:06:22;6.15;;;3.30;;
73113;SDS011;61301;51.956;5.876;2023-06-10T10:08:48;4.38;;;3.08;;
73113;SDS011;61301;51.956;5.876;2023-06-10T10:11:19;5.82;;;3.03;;
73113;SDS011;61301;51.956;5.876;2023-06-10T10:13:49;8.20;;;3.50;;
73113;SDS011;61301;51.956;5.876;2023-06-10T10:16:17;6.35;;;3.53;;
73113;SDS011;61301;51.956;5.876;2023-06-10T10:18:52;5.30;;;3.50;;
73113;SDS011;61301;51.956;5.876;2023-06-10T10:21:22;4.32;;;3.28;;
73113;SDS011;61301;51.956;5.876;2023-06-10T10:23:58;4.28;;;3.38;;
73113;SDS011;61301;51.956;5.876;2023-06-10T10:26:47;4.35;;;3.33;;
73113;SDS011;61301;51.956;5.876;2023-06-10T10:31:57;8.57;;;3.30;;
73113;SDS011;61301;51.956;5.876;2023-06-10T10:34:43;3.30;;;3.00;;
73113;SDS011;61301;51.956;5.876;2023-06-10T10:37:13;4.07;;;3.05;;
73113;SDS011;61301;51.956;5.876;2023-06-10T10:39:39;3.97;;;3.17;;
73113;SDS011;61301;51.956;5.876;2023-06-10T10:42:05;3.83;;;3.13;;
73113;SDS011;61301;51.956;5.876;2023-06-10T10:44:37;5.30;;;3.17;;
73113;SDS011;61301;51.956;5.876;2023-06-10T10:47:04;5.13;;;3.65;;
73113;SDS011;61301;51.956;5.876;2023-06-10T10:49:35;3.42;;;3.00;;
73113;SDS011;61301;51.956;5.876;2023-06-10T10:52:02;5.80;;;3.35;;
73113;SDS011;61301;51.956;5.876;2023-06-10T10:54:31;3.65;;;2.88;;
73113;SDS011;61301;51.956;5.876;2023-06-10T10:57:11;6.03;;;3.05;;
73113;SDS011;61301;51.956;5.876;2023-06-10T11:05:01;7.47;;;2.90;;
73113;SDS011;61301;51.956;5.876;2023-06-10T11:07:34;4.18;;;2.88;;
73113;SDS011;61301;51.956;5.876;2023-06-10T11:10:02;6.32;;;3.25;;
73113;SDS011;61301;51.956;5.876;2023-06-10T11:12:49;4.75;;;3.35;;
73113;SDS011;61301;51.956;5.876;2023-06-10T11:15:18;4.53;;;2.70;;
73113;SDS011;61301;51.956;5.876;2023-06-10T11:31:31;3.85;;;3.00;;
73113;SDS011;61301;51.956;5.876;2023-06-10T11:34:04;4.85;;;3.10;;
73113;SDS011;61301;51.956;5.876;2023-06-10T11:36:32;4.22;;;3.00;;
73113;SDS011;61301;51.956;5.876;2023-06-10T11:39:01;3.33;;;3.03;;
73113;SDS011;61301;51.956;5.876;2023-06-10T11:41:29;7.00;;;3.20;;
73113;SDS011;61301;51.956;5.876;2023-06-10T11:43:56;4.32;;;3.17;;
73113;SDS011;61301;51.956;5.876;2023-06-10T11:46:27;6.72;;;2.97;;
73113;SDS011;61301;51.956;5.876;2023-06-10T11:48:53;6.45;;;3.40;;
73113;SDS011;61301;51.956;5.876;2023-06-10T11:51:27;3.63;;;2.70;;
73113;SDS011;61301;51.956;5.876;2023-06-10T11:53:54;7.28;;;3.20;;
73113;SDS011;61301;51.956;5.876;2023-06-10T11:58:52;3.90;;;2.90;;
73113;SDS011;61301;51.956;5.876;2023-06-10T12:01:35;4.20;;;2.80;;
73113;SDS011;61301;51.956;5.876;2023-06-10T12:04:06;4.45;;;3.25;;
73113;SDS011;61301;51.956;5.876;2023-06-10T12:06:45;3.45;;;3.08;;
73113;SDS011;61301;51.956;5.876;2023-06-10T12:09:28;3.83;;;3.22;;
73113;SDS011;61301;51.956;5.876;2023-06-10T12:12:02;5.05;;;2.88;;
73113;SDS011;61301;51.956;5.876;2023-06-10T12:19:56;4.72;;;3.22;;
73113;SDS011;61301;51.956;5.876;2023-06-10T12:22:23;4.40;;;3.25;;
73113;SDS011;61301;51.956;5.876;2023-06-10T12:24:57;4.55;;;3.20;;
73113;SDS011;61301;51.956;5.876;2023-06-10T12:27:27;4.45;;;3.13;;
73113;SDS011;61301;51.956;5.876;2023-06-10T12:29:55;4.40;;;2.95;;
73113;SDS011;61301;51.956;5.876;2023-06-10T12:35:08;4.82;;;3.30;;
73113;SDS011;61301;51.956;5.876;2023-06-10T12:37:36;4.45;;;3.42;;
73113;SDS011;61301;51.956;5.876;2023-06-10T12:40:05;5.07;;;3.42;;
73113;SDS011;61301;51.956;5.876;2023-06-10T12:42:37;5.72;;;2.88;;
73113;SDS011;61301;51.956;5.876;2023-06-10T12:45:04;5.05;;;3.38;;
73113;SDS011;61301;51.956;5.876;2023-06-10T12:47:33;4.45;;;2.97;;
73113;SDS011;61301;51.956;5.876;2023-06-10T12:50:01;3.45;;;2.92;;
73113;SDS011;61301;51.956;5.876;2023-06-10T12:52:28;5.50;;;3.03;;
73113;SDS011;61301;51.956;5.876;2023-06-10T12:54:54;4.18;;;2.90;;
73113;SDS011;61301;51.956;5.876;2023-06-10T12:57:21;3.22;;;2.92;;
73113;SDS011;61301;51.956;5.876;2023-06-10T12:59:48;6.35;;;3.80;;
73113;SDS011;61301;51.956;5.876;2023-06-10T13:02:18;4.85;;;3.40;;
73113;SDS011;61301;51.956;5.876;2023-06-10T13:04:45;4.07;;;3.13;;
73113;SDS011;61301;51.956;5.876;2023-06-10T13:07:12;4.20;;;3.28;;
73113;SDS011;61301;51.956;5.876;2023-06-10T13:09:38;3.53;;;3.20;;
73113;SDS011;61301;51.956;5.876;2023-06-10T13:12:05;5.22;;;3.67;;
73113;SDS011;61301;51.956;5.876;2023-06-10T13:14:31;4.78;;;2.90;;
73113;SDS011;61301;51.956;5.876;2023-06-10T13:16:57;2.95;;;2.72;;
73113;SDS011;61301;51.956;5.876;2023-06-10T13:19:23;4.03;;;3.08;;
73113;SDS011;61301;51.956;5.876;2023-06-10T13:21:49;5.78;;;3.55;;
73113;SDS011;61301;51.956;5.876;2023-06-10T13:24:15;5.15;;;3.60;;
73113;SDS011;61301;51.956;5.876;2023-06-10T13:26:41;5.78;;;3.17;;
73113;SDS011;61301;51.956;5.876;2023-06-10T13:29:07;4.93;;;3.50;;
73113;SDS011;61301;51.956;5.876;2023-06-10T13:31:33;5.18;;;3.15;;
73113;SDS011;61301;51.956;5.876;2023-06-10T13:33:59;3.58;;;3.28;;
73113;SDS011;61301;51.956;5.876;2023-06-10T13:36:25;3.90;;;3.25;;
73113;SDS011;61301;51.956;5.876;2023-06-10T13:38:51;3.65;;;3.30;;
73113;SDS011;61301;51.956;5.876;2023-06-10T13:41:17;6.97;;;3.38;;
73113;SDS011;61301;51.956;5.876;2023-06-10T13:43:43;4.45;;;3.33;;
73113;SDS011;61301;51.956;5.876;2023-06-10T13:46:13;6.05;;;3.25;;
73113;SDS011;61301;51.956;5.876;2023-06-10T13:48:39;4.97;;;3.25;;
73113;SDS011;61301;51.956;5.876;2023-06-10T13:51:05;6.18;;;3.75;;
73113;SDS011;61301;51.956;5.876;2023-06-10T13:53:32;3.78;;;2.90;;
73113;SDS011;61301;51.956;5.876;2023-06-10T13:55:58;3.67;;;3.22;;
73113;SDS011;61301;51.956;5.876;2023-06-10T13:58:27;4.30;;;2.88;;
73113;SDS011;61301;51.956;5.876;2023-06-10T14:00:53;2.88;;;2.53;;
73113;SDS011;61301;51.956;5.876;2023-06-10T14:03:19;3.25;;;2.63;;
73113;SDS011;61301;51.956;5.876;2023-06-10T14:05:45;4.72;;;3.20;;
73113;SDS011;61301;51.956;5.876;2023-06-10T14:08:11;5.72;;;3.92;;
73113;SDS011;61301;51.956;5.876;2023-06-10T14:10:37;4.03;;;3.20;;
73113;SDS011;61301;51.956;5.876;2023-06-10T14:13:03;3.55;;;3.20;;
73113;SDS011;61301;51.956;5.876;2023-06-10T14:15:29;4.18;;;3.35;;
73113;SDS011;61301;51.956;5.876;2023-06-10T14:17:56;3.60;;;3.15;;
73113;SDS011;61301;51.956;5.876;2023-06-10T14:20:22;4.57;;;3.17;;
73113;SDS011;61301;51.956;5.876;2023-06-10T14:22:48;4.35;;;3.78;;
73113;SDS011;61301;51.956;5.876;2023-06-10T14:25:14;4.32;;;3.30;;
73113;SDS011;61301;51.956;5.876;2023-06-10T14:27:40;5.25;;;3.50;;
73113;SDS011;61301;51.956;5.876;2023-06-10T14:30:07;4.03;;;3.13;;
73113;SDS011;61301;51.956;5.876;2023-06-10T14:32:33;3.42;;;3.13;;
73113;SDS011;61301;51.956;5.876;2023-06-10T14:34:59;4.47;;;3.42;;
73113;SDS011;61301;51.956;5.876;2023-06-10T14:37:25;3.95;;;2.97;;
73113;SDS011;61301;51.956;5.876;2023-06-10T14:39:51;3.65;;;3.00;;
73113;SDS011;61301;51.956;5.876;2023-06-10T14:42:17;3.20;;;2.90;;
73113;SDS011;61301;51.956;5.876;2023-06-10T14:44:43;3.78;;;3.20;;
73113;SDS011;61301;51.956;5.876;2023-06-10T14:47:09;4.10;;;2.90;;
73113;SDS011;61301;51.956;5.876;2023-06-10T14:49:35;4.38;;;3.30;;
73113;SDS011;61301;51.956;5.876;2023-06-10T14:52:01;6.03;;;3.15;;
73113;SDS011;61301;51.956;5.876;2023-06-10T14:54:27;4.57;;;3.10;;
73113;SDS011;61301;51.956;5.876;2023-06-10T14:56:53;5.28;;;3.42;;
73113;SDS011;61301;51.956;5.876;2023-06-10T14:59:19;5.68;;;3.55;;
73113;SDS011;61301;51.956;5.876;2023-06-10T15:01:45;3.63;;;2.83;;
73113;SDS011;61301;51.956;5.876;2023-06-10T15:04:11;3.92;;;2.92;;
73113;SDS011;61301;51.956;5.876;2023-06-10T15:06:37;3.30;;;3.00;;
73113;SDS011;61301;51.956;5.876;2023-06-10T15:09:04;3.20;;;2.90;;
73113;SDS011;61301;51.956;5.876;2023-06-10T15:11:30;5.35;;;3.45;;
73113;SDS011;61301;51.956;5.876;2023-06-10T15:13:56;3.33;;;3.03;;
73113;SDS011;61301;51.956;5.876;2023-06-10T15:16:22;4.10;;;3.22;;
73113;SDS011;61301;51.956;5.876;2023-06-10T15:18:48;3.42;;;3.13;;
73113;SDS011;61301;51.956;5.876;2023-06-10T15:21:14;4.55;;;3.53;;
73113;SDS011;61301;51.956;5.876;2023-06-10T15:23:40;4.00;;;3.05;;
73113;SDS011;61301;51.956;5.876;2023-06-10T15:26:06;4.18;;;3.45;;
73113;SDS011;61301;51.956;5.876;2023-06-10T15:28:32;3.90;;;2.83;;
73113;SDS011;61301;51.956;5.876;2023-06-10T15:30:58;3.67;;;3.08;;